createdAt,value
2023-01-11T00:02:17.371Z,8.8
2023-01-11T00:07:23.440Z,8.8
2023-01-11T00:12:29.499Z,8.8
2023-01-11T00:17:35.546Z,8.8
2023-01-11T00:22:41.593Z,8.8
2023-01-11T00:27:47.683Z,8.8
2023-01-11T00:32:53.687Z,8.8
2023-01-11T00:37:59.772Z,8.8
2023-01-11T00:43:05.844Z,8.8
2023-01-11T00:48:11.881Z,8.8
2023-01-11T00:53:17.921Z,8.8
2023-01-11T00:58:24.014Z,8.8
2023-01-11T01:03:30.058Z,8.8
2023-01-11T01:08:36.090Z,8.8
2023-01-11T01:13:42.184Z,8.8
2023-01-11T01:18:48.432Z,8.8
2023-01-11T01:23:54.274Z,8.8
2023-01-11T01:29:00.346Z,8.8
2023-01-11T01:34:06.396Z,8.8
2023-01-11T01:39:12.431Z,8.8
2023-01-11T01:44:18.535Z,8.8
2023-01-11T01:49:24.575Z,8.9
2023-01-11T01:54:30.627Z,8.9
2023-01-11T01:59:37.042Z,8.9
2023-01-11T02:04:42.752Z,8.9
2023-01-11T02:09:48.780Z,8.8
2023-01-11T02:14:54.869Z,8.8
2023-01-11T02:20:00.901Z,8.8
2023-01-11T02:25:06.959Z,8.7
2023-01-11T02:30:13.067Z,8.7
2023-01-11T02:35:19.093Z,8.7
2023-01-11T02:40:25.116Z,8.7
2023-01-11T02:45:31.243Z,8.7
2023-01-11T02:50:37.263Z,8.7
2023-01-11T02:55:43.322Z,8.7
2023-01-11T03:00:49.393Z,8.7
2023-01-11T03:05:55.426Z,8.7
2023-01-11T03:11:01.470Z,8.7
2023-01-11T03:16:07.622Z,8.7
2023-01-11T03:21:13.612Z,8.8
2023-01-11T03:26:19.655Z,8.8
2023-01-11T03:31:25.783Z,8.7
2023-01-11T03:36:31.750Z,8.7
2023-01-11T03:41:37.817Z,8.7
2023-01-11T03:46:44.020Z,8.7
2023-01-11T03:51:49.912Z,8.7
2023-01-11T03:56:55.975Z,8.7
2023-01-11T04:02:02.090Z,8.7
2023-01-11T04:07:08.107Z,8.7
2023-01-11T04:12:14.159Z,8.7
2023-01-11T04:17:20.217Z,8.7
2023-01-11T04:22:26.289Z,8.7
2023-01-11T04:27:32.327Z,8.7
2023-01-11T04:32:38.414Z,8.7
2023-01-11T04:37:44.448Z,8.6
2023-01-11T04:42:50.485Z,8.7
2023-01-11T04:47:56.580Z,8.7
2023-01-11T04:53:02.607Z,8.7
2023-01-11T04:58:08.654Z,8.7
2023-01-11T05:03:14.747Z,8.6
2023-01-11T05:08:20.777Z,8.6
2023-01-11T05:13:26.840Z,8.6
2023-01-11T05:18:32.900Z,8.6
2023-01-11T05:23:38.931Z,8.9
2023-01-11T05:28:44.991Z,9
2023-01-11T05:33:51.081Z,9.1
2023-01-11T05:38:57.110Z,9
2023-01-11T05:44:03.180Z,9.1
2023-01-11T05:54:17.177Z,9.3
2023-01-11T05:59:23.225Z,9.3
2023-01-11T06:04:29.283Z,9.4
2023-01-11T06:09:35.399Z,9.4
2023-01-11T06:14:41.390Z,9.5
2023-01-11T06:19:47.448Z,9.5
2023-01-11T06:24:53.533Z,9.6
2023-01-11T06:29:59.570Z,9.6
2023-01-11T06:35:05.621Z,9.6
2023-01-11T06:40:11.715Z,9.7
2023-01-11T06:45:17.742Z,9.7
2023-01-11T06:50:23.812Z,9.7
2023-01-11T06:55:29.879Z,9.7
2023-01-11T07:00:35.927Z,9.7
2023-01-11T07:05:41.945Z,9.7
2023-01-11T07:10:48.041Z,9.7
2023-01-11T07:15:54.415Z,9.7
2023-01-11T07:21:00.156Z,9.8
2023-01-11T07:26:06.330Z,9.8
2023-01-11T07:31:12.358Z,10
2023-01-11T07:36:18.354Z,10
2023-01-11T07:41:24.431Z,10.1
2023-01-11T07:46:30.543Z,10.1
2023-01-11T07:51:36.487Z,9.9
2023-01-11T07:56:42.564Z,10
2023-01-11T08:01:48.583Z,10
2023-01-11T08:06:54.619Z,10
2023-01-11T08:12:00.716Z,10.1
2023-01-11T08:17:06.747Z,10.1
2023-01-11T08:22:12.813Z,10.1
2023-01-11T08:27:18.901Z,10.1
2023-01-11T08:32:24.912Z,10.1
2023-01-11T08:37:30.980Z,10.1
2023-01-11T08:42:37.059Z,10.1
2023-01-11T08:47:43.101Z,10.2
2023-01-11T08:57:57.115Z,10.2
2023-01-11T09:03:03.198Z,10.2
2023-01-11T09:08:09.184Z,10.2
2023-01-11T09:13:15.270Z,10.2
2023-01-11T09:18:21.325Z,10.2
2023-01-11T09:23:27.376Z,10.2
2023-01-11T09:28:33.430Z,10.2
2023-01-11T09:33:39.473Z,10.2
2023-01-11T09:38:45.545Z,10.2
2023-01-11T09:43:51.679Z,10.2
2023-01-11T09:48:57.636Z,10.2
2023-01-11T09:54:03.734Z,10.3
2023-01-11T09:59:09.794Z,10.3
2023-01-11T10:04:15.818Z,10.3
2023-01-11T10:18:31.010Z,10.4
2023-01-11T10:19:39.940Z,10.4
2023-01-11T10:24:40.020Z,10.4
2023-01-11T10:29:46.195Z,10.4
2023-01-11T10:34:52.151Z,10.4
2023-01-11T10:39:58.205Z,10.4
2023-01-11T10:45:04.305Z,10.4
2023-01-11T10:50:10.337Z,10.4
2023-01-11T10:55:16.386Z,10.5
2023-01-11T11:00:22.541Z,10.4
2023-01-11T11:05:28.501Z,10.4
2023-01-11T11:10:34.574Z,10.5
2023-01-11T11:15:40.641Z,10.5
2023-01-11T11:20:46.678Z,10.5
2023-01-11T11:25:52.735Z,10.5
2023-01-11T11:30:58.826Z,10.5
2023-01-11T11:36:04.923Z,10.6
2023-01-11T11:41:10.922Z,10.6
2023-01-11T11:46:19.800Z,10.6
2023-01-11T11:51:23.000Z,10.6
2023-01-11T11:56:29.050Z,10.6
2023-01-11T12:01:35.197Z,10.6
2023-01-11T12:06:41.172Z,10.8
2023-01-11T12:11:47.222Z,10.8
2023-01-11T12:16:53.399Z,10.6
2023-01-11T12:21:59.345Z,10.5
2023-01-11T12:27:05.488Z,10.7
2023-01-11T12:32:11.506Z,10.8
2023-01-11T12:37:17.508Z,10.8
2023-01-11T12:42:23.554Z,10.7
2023-01-11T12:47:29.686Z,10.7
2023-01-11T12:52:35.668Z,10.8
2023-01-11T12:57:41.754Z,10.8
2023-01-11T13:02:47.918Z,10.8
2023-01-11T13:07:53.839Z,10.9
2023-01-11T13:12:59.919Z,10.9
2023-01-11T13:18:05.978Z,10.9
2023-01-11T13:23:12.021Z,10.9
2023-01-11T13:28:24.014Z,11
2023-01-11T13:33:24.281Z,11
2023-01-11T13:38:30.206Z,11.1
2023-01-11T13:48:44.249Z,11.1
2023-01-11T13:53:50.241Z,11.1
2023-01-11T13:58:56.293Z,11.1
2023-01-11T14:04:02.377Z,11.1
2023-01-11T14:09:08.404Z,11.1
2023-01-11T14:14:14.527Z,11.2
2023-01-11T14:19:20.673Z,11.2
2023-01-11T14:24:26.572Z,11.2
2023-01-11T14:29:32.635Z,11.1
2023-01-11T14:34:39.061Z,11.1
2023-01-11T14:39:44.736Z,11.1
2023-01-11T14:44:50.803Z,11.1
2023-01-11T14:49:56.893Z,11
2023-01-11T14:55:02.925Z,11
2023-01-11T15:00:08.989Z,11
2023-01-11T15:05:15.077Z,10.9
2023-01-11T15:10:21.094Z,10.9
2023-01-11T15:15:27.162Z,10.8
2023-01-11T15:20:33.219Z,10.8
2023-01-11T15:25:39.280Z,10.7
2023-01-11T15:30:45.324Z,10.7
2023-01-11T15:35:51.402Z,10.7
2023-01-11T15:40:57.438Z,10.6
2023-01-11T15:46:03.515Z,10.6
2023-01-11T15:51:09.574Z,10.5
2023-01-11T15:56:15.609Z,10.5
2023-01-11T16:01:21.747Z,10.4
2023-01-11T16:06:27.743Z,10.4
2023-01-11T16:11:33.805Z,10.4
2023-01-11T16:16:39.871Z,10.4
2023-01-11T16:21:47.564Z,10.4
2023-01-11T16:26:52.037Z,10.4
2023-01-11T16:31:58.109Z,10.3
2023-01-11T16:37:04.088Z,10.3
2023-01-11T16:42:10.113Z,10.3
2023-01-11T16:47:16.182Z,10.3
2023-01-11T16:52:22.239Z,10.3
2023-01-11T16:57:28.308Z,10.3
2023-01-11T17:02:34.423Z,10.2
2023-01-11T17:07:40.416Z,10.2
2023-01-11T17:12:46.536Z,10.2
2023-01-11T17:17:52.527Z,10.1
2023-01-11T17:22:58.593Z,10.3
2023-01-11T17:28:04.638Z,10.3
2023-01-11T17:33:10.687Z,10.3
2023-01-11T17:38:16.811Z,10.3
2023-01-11T17:43:22.790Z,10.3
2023-01-11T17:48:28.865Z,10.2
2023-01-11T17:53:34.942Z,10.2
2023-01-11T17:58:40.981Z,10.2
2023-01-11T18:03:47.022Z,10.2
2023-01-11T18:08:53.092Z,10.1
2023-01-11T18:13:59.166Z,10.1
2023-01-11T18:19:05.207Z,10.1
2023-01-11T18:24:11.269Z,10.1
2023-01-11T18:29:17.348Z,10.1
2023-01-11T18:34:23.376Z,10.1
2023-01-11T18:39:29.734Z,10.1
2023-01-11T18:44:35.495Z,10.1
2023-01-11T18:49:41.554Z,10.1
2023-01-11T18:54:47.645Z,10
2023-01-11T18:59:53.745Z,10
2023-01-11T19:04:59.710Z,10
2023-01-11T19:10:05.776Z,10
2023-01-11T19:15:11.838Z,10
2023-01-11T19:20:17.885Z,10
2023-01-11T19:25:23.981Z,10
2023-01-11T19:30:29.996Z,10
2023-01-11T19:35:36.051Z,10
2023-01-11T19:40:42.173Z,9.9
2023-01-11T19:45:48.242Z,9.9
2023-01-11T19:50:54.218Z,9.9
2023-01-11T19:56:00.299Z,9.9
2023-01-11T20:01:06.438Z,9.9
2023-01-11T20:06:12.408Z,9.9
2023-01-11T20:11:18.557Z,9.9
2023-01-11T20:16:24.508Z,9.9
2023-01-11T20:21:30.574Z,9.9
2023-01-11T20:26:36.707Z,9.9
2023-01-11T20:31:42.679Z,9.9
2023-01-11T20:36:48.784Z,9.9
2023-01-11T20:41:54.821Z,9.9
2023-01-11T20:47:00.845Z,9.8
2023-01-11T20:52:06.944Z,9.8
2023-01-11T20:57:13.097Z,9.8
2023-01-11T21:02:19.015Z,9.8
2023-01-11T21:07:25.071Z,9.8
2023-01-11T21:12:31.157Z,9.8
2023-01-11T21:17:37.192Z,9.7
2023-01-11T21:22:43.271Z,9.7
2023-01-11T21:27:49.419Z,9.7
2023-01-11T21:32:55.362Z,9.7
2023-01-11T21:38:01.432Z,9.7
2023-01-11T21:43:07.519Z,9.8
2023-01-11T21:48:13.550Z,9.7
2023-01-11T21:53:19.610Z,9.7
2023-01-11T21:58:25.679Z,9.7
2023-01-11T22:03:31.758Z,9.7
2023-01-11T22:08:37.787Z,9.7
2023-01-11T22:13:43.889Z,9.7
2023-01-11T22:18:49.891Z,9.7
2023-01-11T22:23:55.953Z,9.7
2023-01-11T22:29:02.014Z,9.6
2023-01-11T22:34:08.042Z,9.6
2023-01-11T22:39:14.179Z,9.6
2023-01-11T22:44:20.191Z,9.7
2023-01-11T22:49:26.224Z,9.7
2023-01-11T22:54:32.312Z,9.7
2023-01-11T22:59:38.391Z,9.6
2023-01-11T23:04:44.411Z,9.6
2023-01-11T23:09:50.458Z,9.6
2023-01-11T23:14:56.536Z,9.6
2023-01-11T23:20:02.587Z,9.6
2023-01-11T23:25:08.642Z,9.5
2023-01-11T23:30:14.747Z,9.5
2023-01-11T23:35:20.743Z,9.5
2023-01-11T23:40:26.826Z,9.5
2023-01-11T23:45:32.943Z,9.5
2023-01-11T23:50:38.936Z,9.5
2023-01-11T23:55:45.002Z,9.5
